sensor_id;sensor_type;location;lat;lon;timestamp;temperature;humidity
3275;DHT22;1649;53.672;10.064;2023-07-31T00:00:33;14.10;99.90
3275;DHT22;1649;53.672;10.064;2023-07-31T00:02:59;14.10;99.90
3275;DHT22;1649;53.672;10.064;2023-07-31T00:05:24;14.10;99.90
3275;DHT22;1649;53.672;10.064;2023-07-31T00:07:50;14.10;99.90
3275;DHT22;1649;53.672;10.064;2023-07-31T00:10:16;14.10;99.90
3275;DHT22;1649;53.672;10.064;2023-07-31T00:12:42;14.20;99.90
3275;DHT22;1649;53.672;10.064;2023-07-31T00:15:08;14.20;99.90
3275;DHT22;1649;53.672;10.064;2023-07-31T00:17:34;14.20;99.90
3275;DHT22;1649;53.672;10.064;2023-07-31T00:20:00;14.30;99.90
3275;DHT22;1649;53.672;10.064;2023-07-31T00:22:25;14.20;99.90
3275;DHT22;1649;53.672;10.064;2023-07-31T00:24:51;14.20;99.90
3275;DHT22;1649;53.672;10.064;2023-07-31T00:27:16;14.20;99.90
3275;DHT22;1649;53.672;10.064;2023-07-31T00:29:42;14.20;99.90
3275;DHT22;1649;53.672;10.064;2023-07-31T00:32:07;14.30;99.90
3275;DHT22;1649;53.672;10.064;2023-07-31T00:34:33;14.30;99.90
3275;DHT22;1649;53.672;10.064;2023-07-31T00:36:58;14.30;99.90
3275;DHT22;1649;53.672;10.064;2023-07-31T00:39:24;14.30;99.90
3275;DHT22;1649;53.672;10.064;2023-07-31T00:41:49;14.30;99.90
3275;DHT22;1649;53.672;10.064;2023-07-31T00:44:15;14.30;99.90
3275;DHT22;1649;53.672;10.064;2023-07-31T00:46:40;14.40;99.90
3275;DHT22;1649;53.672;10.064;2023-07-31T00:49:06;14.40;99.90
3275;DHT22;1649;53.672;10.064;2023-07-31T00:51:33;14.40;99.90
3275;DHT22;1649;53.672;10.064;2023-07-31T00:53:58;14.40;99.90
3275;DHT22;1649;53.672;10.064;2023-07-31T00:56:25;14.40;99.90
3275;DHT22;1649;53.672;10.064;2023-07-31T00:58:51;14.40;99.90
3275;DHT22;1649;53.672;10.064;2023-07-31T01:01:16;14.40;99.90
3275;DHT22;1649;53.672;10.064;2023-07-31T01:03:42;14.30;99.90
3275;DHT22;1649;53.672;10.064;2023-07-31T01:08:57;14.20;99.90
3275;DHT22;1649;53.672;10.064;2023-07-31T01:11:52;14.20;99.90
3275;DHT22;1649;53.672;10.064;2023-07-31T01:14:18;14.20;99.90
3275;DHT22;1649;53.672;10.064;2023-07-31T01:16:43;14.20;99.90
3275;DHT22;1649;53.672;10.064;2023-07-31T01:19:10;14.20;99.90
3275;DHT22;1649;53.672;10.064;2023-07-31T01:26:34;14.20;99.90
3275;DHT22;1649;53.672;10.064;2023-07-31T01:29:07;14.20;99.90
3275;DHT22;1649;53.672;10.064;2023-07-31T01:31:36;14.20;99.90
3275;DHT22;1649;53.672;10.064;2023-07-31T01:34:02;14.20;99.90
3275;DHT22;1649;53.672;10.064;2023-07-31T01:36:29;14.30;99.90
3275;DHT22;1649;53.672;10.064;2023-07-31T01:38:59;14.30;99.90
3275;DHT22;1649;53.672;10.064;2023-07-31T01:41:25;14.30;99.90
3275;DHT22;1649;53.672;10.064;2023-07-31T01:43:51;14.30;99.90
3275;DHT22;1649;53.672;10.064;2023-07-31T01:46:16;14.40;99.90
3275;DHT22;1649;53.672;10.064;2023-07-31T01:48:42;14.40;99.90
3275;DHT22;1649;53.672;10.064;2023-07-31T01:51:07;14.30;99.90
3275;DHT22;1649;53.672;10.064;2023-07-31T01:53:33;14.30;99.90
3275;DHT22;1649;53.672;10.064;2023-07-31T01:55:58;14.40;99.90
3275;DHT22;1649;53.672;10.064;2023-07-31T01:58:24;14.40;99.90
3275;DHT22;1649;53.672;10.064;2023-07-31T02:00:49;14.40;99.90
3275;DHT22;1649;53.672;10.064;2023-07-31T02:03:15;14.40;99.90
3275;DHT22;1649;53.672;10.064;2023-07-31T02:05:47;14.50;99.90
3275;DHT22;1649;53.672;10.064;2023-07-31T02:08:13;14.50;99.90
3275;DHT22;1649;53.672;10.064;2023-07-31T02:10:39;14.60;99.90
3275;DHT22;1649;53.672;10.064;2023-07-31T02:13:05;14.60;99.90
3275;DHT22;1649;53.672;10.064;2023-07-31T02:15:31;14.60;99.90
3275;DHT22;1649;53.672;10.064;2023-07-31T02:17:56;14.60;99.90
3275;DHT22;1649;53.672;10.064;2023-07-31T02:20:22;14.60;99.90
3275;DHT22;1649;53.672;10.064;2023-07-31T02:22:47;14.60;99.90
3275;DHT22;1649;53.672;10.064;2023-07-31T02:25:13;14.70;99.90
3275;DHT22;1649;53.672;10.064;2023-07-31T02:27:39;14.70;99.90
3275;DHT22;1649;53.672;10.064;2023-07-31T02:30:04;14.70;99.90
3275;DHT22;1649;53.672;10.064;2023-07-31T02:32:30;14.70;99.90
3275;DHT22;1649;53.672;10.064;2023-07-31T02:34:55;14.70;99.90
3275;DHT22;1649;53.672;10.064;2023-07-31T02:37:21;14.70;99.90
3275;DHT22;1649;53.672;10.064;2023-07-31T02:39:46;14.80;99.90
3275;DHT22;1649;53.672;10.064;2023-07-31T02:42:13;14.80;99.90
3275;DHT22;1649;53.672;10.064;2023-07-31T02:44:38;14.80;99.90
3275;DHT22;1649;53.672;10.064;2023-07-31T02:47:04;14.80;99.90
3275;DHT22;1649;53.672;10.064;2023-07-31T02:49:30;14.80;99.90
3275;DHT22;1649;53.672;10.064;2023-07-31T02:51:55;14.80;99.90
3275;DHT22;1649;53.672;10.064;2023-07-31T02:54:20;14.80;99.90
3275;DHT22;1649;53.672;10.064;2023-07-31T02:56:47;14.80;99.90
3275;DHT22;1649;53.672;10.064;2023-07-31T02:59:13;14.80;99.90
3275;DHT22;1649;53.672;10.064;2023-07-31T03:01:38;14.70;99.90
3275;DHT22;1649;53.672;10.064;2023-07-31T03:04:04;14.70;99.90
3275;DHT22;1649;53.672;10.064;2023-07-31T03:06:30;14.80;99.90
3275;DHT22;1649;53.672;10.064;2023-07-31T03:08:55;14.70;99.90
3275;DHT22;1649;53.672;10.064;2023-07-31T03:11:21;14.80;99.90
3275;DHT22;1649;53.672;10.064;2023-07-31T03:13:46;14.80;99.90
3275;DHT22;1649;53.672;10.064;2023-07-31T03:16:12;14.80;99.90
3275;DHT22;1649;53.672;10.064;2023-07-31T03:18:37;14.80;99.90
3275;DHT22;1649;53.672;10.064;2023-07-31T03:21:04;14.90;99.90
3275;DHT22;1649;53.672;10.064;2023-07-31T03:23:29;14.90;99.90
3275;DHT22;1649;53.672;10.064;2023-07-31T03:26:00;14.90;99.90
3275;DHT22;1649;53.672;10.064;2023-07-31T03:28:26;14.90;99.90
3275;DHT22;1649;53.672;10.064;2023-07-31T03:30:52;14.90;99.90
3275;DHT22;1649;53.672;10.064;2023-07-31T03:33:18;14.90;99.90
3275;DHT22;1649;53.672;10.064;2023-07-31T03:35:43;14.90;99.90
3275;DHT22;1649;53.672;10.064;2023-07-31T03:38:09;14.90;99.90
3275;DHT22;1649;53.672;10.064;2023-07-31T03:40:34;14.90;99.90
3275;DHT22;1649;53.672;10.064;2023-07-31T03:43:00;14.90;99.90
3275;DHT22;1649;53.672;10.064;2023-07-31T03:45:25;14.90;99.90
3275;DHT22;1649;53.672;10.064;2023-07-31T03:47:51;14.90;99.90
3275;DHT22;1649;53.672;10.064;2023-07-31T03:50:17;14.90;99.90
3275;DHT22;1649;53.672;10.064;2023-07-31T03:52:42;14.90;99.90
3275;DHT22;1649;53.672;10.064;2023-07-31T03:55:08;15.00;99.90
3275;DHT22;1649;53.672;10.064;2023-07-31T03:57:33;15.00;99.90
3275;DHT22;1649;53.672;10.064;2023-07-31T03:59:59;15.10;99.90
3275;DHT22;1649;53.672;10.064;2023-07-31T04:02:24;15.00;99.90
3275;DHT22;1649;53.672;10.064;2023-07-31T04:04:50;15.10;99.90
3275;DHT22;1649;53.672;10.064;2023-07-31T04:07:16;15.10;99.90
3275;DHT22;1649;53.672;10.064;2023-07-31T04:09:41;15.10;99.90
3275;DHT22;1649;53.672;10.064;2023-07-31T04:12:07;15.10;99.90
3275;DHT22;1649;53.672;10.064;2023-07-31T04:14:32;15.10;99.90
3275;DHT22;1649;53.672;10.064;2023-07-31T04:16:58;15.20;99.90
3275;DHT22;1649;53.672;10.064;2023-07-31T04:19:23;15.10;99.90
3275;DHT22;1649;53.672;10.064;2023-07-31T04:21:49;15.10;99.90
3275;DHT22;1649;53.672;10.064;2023-07-31T04:24:14;15.10;99.90
3275;DHT22;1649;53.672;10.064;2023-07-31T04:26:40;15.20;99.90
3275;DHT22;1649;53.672;10.064;2023-07-31T04:29:05;15.20;99.90
3275;DHT22;1649;53.672;10.064;2023-07-31T04:31:31;15.20;99.90
3275;DHT22;1649;53.672;10.064;2023-07-31T04:33:56;15.20;99.90
3275;DHT22;1649;53.672;10.064;2023-07-31T04:36:22;15.20;99.90
3275;DHT22;1649;53.672;10.064;2023-07-31T04:38:47;15.20;99.90
3275;DHT22;1649;53.672;10.064;2023-07-31T04:41:13;15.20;99.90
3275;DHT22;1649;53.672;10.064;2023-07-31T04:43:38;15.30;99.90
3275;DHT22;1649;53.672;10.064;2023-07-31T04:46:05;15.30;99.90
3275;DHT22;1649;53.672;10.064;2023-07-31T04:48:30;15.30;99.90
3275;DHT22;1649;53.672;10.064;2023-07-31T04:50:56;15.30;99.90
3275;DHT22;1649;53.672;10.064;2023-07-31T04:53:21;15.30;99.90
3275;DHT22;1649;53.672;10.064;2023-07-31T04:55:47;15.30;99.90
3275;DHT22;1649;53.672;10.064;2023-07-31T04:58:12;15.30;99.90
3275;DHT22;1649;53.672;10.064;2023-07-31T05:00:38;15.30;99.90
3275;DHT22;1649;53.672;10.064;2023-07-31T05:03:03;15.30;99.90
3275;DHT22;1649;53.672;10.064;2023-07-31T05:05:29;15.30;99.90
3275;DHT22;1649;53.672;10.064;2023-07-31T05:07:54;15.30;99.90
3275;DHT22;1649;53.672;10.064;2023-07-31T05:10:20;15.30;99.90
3275;DHT22;1649;53.672;10.064;2023-07-31T05:12:45;15.30;99.90
3275;DHT22;1649;53.672;10.064;2023-07-31T05:15:11;15.40;99.90
3275;DHT22;1649;53.672;10.064;2023-07-31T05:17:36;15.40;99.90
3275;DHT22;1649;53.672;10.064;2023-07-31T05:20:02;15.40;99.90
3275;DHT22;1649;53.672;10.064;2023-07-31T05:22:28;15.50;99.90
3275;DHT22;1649;53.672;10.064;2023-07-31T05:24:53;15.40;99.90
3275;DHT22;1649;53.672;10.064;2023-07-31T05:27:19;15.40;99.90
3275;DHT22;1649;53.672;10.064;2023-07-31T05:29:45;15.40;99.90
3275;DHT22;1649;53.672;10.064;2023-07-31T05:32:11;15.40;99.90
3275;DHT22;1649;53.672;10.064;2023-07-31T05:34:37;15.40;99.90
3275;DHT22;1649;53.672;10.064;2023-07-31T05:37:02;15.40;99.90
3275;DHT22;1649;53.672;10.064;2023-07-31T05:39:28;15.40;99.90
3275;DHT22;1649;53.672;10.064;2023-07-31T05:41:53;15.40;99.90
3275;DHT22;1649;53.672;10.064;2023-07-31T05:44:19;15.40;99.90
3275;DHT22;1649;53.672;10.064;2023-07-31T05:46:44;15.40;99.90
3275;DHT22;1649;53.672;10.064;2023-07-31T05:49:10;15.30;99.90
3275;DHT22;1649;53.672;10.064;2023-07-31T05:51:35;15.30;99.90
3275;DHT22;1649;53.672;10.064;2023-07-31T05:54:01;15.30;99.90
3275;DHT22;1649;53.672;10.064;2023-07-31T05:56:26;15.40;99.90
3275;DHT22;1649;53.672;10.064;2023-07-31T05:58:52;15.30;99.90
3275;DHT22;1649;53.672;10.064;2023-07-31T06:01:18;15.30;99.90
3275;DHT22;1649;53.672;10.064;2023-07-31T06:03:43;15.30;99.90
3275;DHT22;1649;53.672;10.064;2023-07-31T06:06:09;15.30;99.90
3275;DHT22;1649;53.672;10.064;2023-07-31T06:08:35;15.30;99.90
3275;DHT22;1649;53.672;10.064;2023-07-31T06:11:00;15.30;99.90
3275;DHT22;1649;53.672;10.064;2023-07-31T06:13:26;15.40;99.90
3275;DHT22;1649;53.672;10.064;2023-07-31T06:15:51;15.40;99.90
3275;DHT22;1649;53.672;10.064;2023-07-31T06:18:17;15.40;99.90
3275;DHT22;1649;53.672;10.064;2023-07-31T06:20:42;15.40;99.90
3275;DHT22;1649;53.672;10.064;2023-07-31T06:23:08;15.40;99.90
3275;DHT22;1649;53.672;10.064;2023-07-31T06:25:33;15.50;99.90
3275;DHT22;1649;53.672;10.064;2023-07-31T06:27:59;15.50;99.90
3275;DHT22;1649;53.672;10.064;2023-07-31T06:30:24;15.50;99.90
3275;DHT22;1649;53.672;10.064;2023-07-31T06:32:50;15.50;99.90
3275;DHT22;1649;53.672;10.064;2023-07-31T06:35:15;15.60;99.90
3275;DHT22;1649;53.672;10.064;2023-07-31T06:37:41;15.50;99.90
3275;DHT22;1649;53.672;10.064;2023-07-31T06:40:09;15.50;99.90
3275;DHT22;1649;53.672;10.064;2023-07-31T06:42:35;15.50;99.90
3275;DHT22;1649;53.672;10.064;2023-07-31T06:45:02;15.50;99.90
3275;DHT22;1649;53.672;10.064;2023-07-31T06:47:27;15.50;99.90
3275;DHT22;1649;53.672;10.064;2023-07-31T06:49:53;15.50;99.90
3275;DHT22;1649;53.672;10.064;2023-07-31T06:52:18;15.50;99.90
3275;DHT22;1649;53.672;10.064;2023-07-31T06:54:44;15.50;99.90
3275;DHT22;1649;53.672;10.064;2023-07-31T06:57:09;15.50;99.90
3275;DHT22;1649;53.672;10.064;2023-07-31T06:59:35;15.60;99.90
3275;DHT22;1649;53.672;10.064;2023-07-31T07:02:00;15.70;99.90
3275;DHT22;1649;53.672;10.064;2023-07-31T07:04:26;15.70;99.90
3275;DHT22;1649;53.672;10.064;2023-07-31T07:06:52;15.70;99.90
3275;DHT22;1649;53.672;10.064;2023-07-31T07:09:17;15.70;99.90
3275;DHT22;1649;53.672;10.064;2023-07-31T07:11:43;15.70;99.90
3275;DHT22;1649;53.672;10.064;2023-07-31T07:14:08;15.60;99.90
3275;DHT22;1649;53.672;10.064;2023-07-31T07:16:34;15.60;99.90
3275;DHT22;1649;53.672;10.064;2023-07-31T07:18:59;15.60;99.90
3275;DHT22;1649;53.672;10.064;2023-07-31T07:21:25;15.60;99.90
3275;DHT22;1649;53.672;10.064;2023-07-31T07:23:50;15.70;99.90
3275;DHT22;1649;53.672;10.064;2023-07-31T07:26:16;15.70;99.90
3275;DHT22;1649;53.672;10.064;2023-07-31T07:28:41;15.70;99.90
3275;DHT22;1649;53.672;10.064;2023-07-31T07:31:07;15.70;99.90
3275;DHT22;1649;53.672;10.064;2023-07-31T07:33:32;15.70;99.90
3275;DHT22;1649;53.672;10.064;2023-07-31T07:36:01;15.60;99.90
3275;DHT22;1649;53.672;10.064;2023-07-31T07:38:27;15.70;99.90
3275;DHT22;1649;53.672;10.064;2023-07-31T07:40:53;15.70;99.90
3275;DHT22;1649;53.672;10.064;2023-07-31T07:43:19;15.50;99.90
3275;DHT22;1649;53.672;10.064;2023-07-31T07:45:44;15.50;99.90
3275;DHT22;1649;53.672;10.064;2023-07-31T07:48:09;15.60;99.90
3275;DHT22;1649;53.672;10.064;2023-07-31T07:50:35;15.60;99.90
3275;DHT22;1649;53.672;10.064;2023-07-31T07:53:02;15.60;99.90
3275;DHT22;1649;53.672;10.064;2023-07-31T07:55:27;15.70;99.90
3275;DHT22;1649;53.672;10.064;2023-07-31T07:57:53;15.70;99.90
3275;DHT22;1649;53.672;10.064;2023-07-31T08:00:18;15.80;99.90
3275;DHT22;1649;53.672;10.064;2023-07-31T08:02:44;15.80;99.90
3275;DHT22;1649;53.672;10.064;2023-07-31T08:05:09;15.90;99.90
3275;DHT22;1649;53.672;10.064;2023-07-31T08:07:35;15.90;99.90
3275;DHT22;1649;53.672;10.064;2023-07-31T08:10:01;15.90;99.90
3275;DHT22;1649;53.672;10.064;2023-07-31T08:12:26;15.80;99.90
3275;DHT22;1649;53.672;10.064;2023-07-31T08:14:52;16.00;99.90
3275;DHT22;1649;53.672;10.064;2023-07-31T08:17:17;16.10;99.90
3275;DHT22;1649;53.672;10.064;2023-07-31T08:19:43;16.20;99.90
3275;DHT22;1649;53.672;10.064;2023-07-31T08:22:09;16.20;99.90
3275;DHT22;1649;53.672;10.064;2023-07-31T08:24:34;16.30;99.90
3275;DHT22;1649;53.672;10.064;2023-07-31T08:27:00;16.30;99.90
3275;DHT22;1649;53.672;10.064;2023-07-31T08:29:25;16.40;99.90
3275;DHT22;1649;53.672;10.064;2023-07-31T08:31:51;16.40;99.90
3275;DHT22;1649;53.672;10.064;2023-07-31T08:34:16;16.40;99.90
3275;DHT22;1649;53.672;10.064;2023-07-31T08:36:42;16.40;99.90
3275;DHT22;1649;53.672;10.064;2023-07-31T08:39:07;16.40;99.90
3275;DHT22;1649;53.672;10.064;2023-07-31T08:41:37;16.40;99.90
3275;DHT22;1649;53.672;10.064;2023-07-31T08:44:04;16.40;99.90
3275;DHT22;1649;53.672;10.064;2023-07-31T08:46:30;16.30;99.90
3275;DHT22;1649;53.672;10.064;2023-07-31T08:48:56;16.30;99.90
3275;DHT22;1649;53.672;10.064;2023-07-31T08:51:23;16.30;99.90
3275;DHT22;1649;53.672;10.064;2023-07-31T08:53:49;16.40;99.90
3275;DHT22;1649;53.672;10.064;2023-07-31T08:56:15;16.40;99.90
3275;DHT22;1649;53.672;10.064;2023-07-31T08:58:43;16.50;99.90
3275;DHT22;1649;53.672;10.064;2023-07-31T09:01:09;16.50;99.90
3275;DHT22;1649;53.672;10.064;2023-07-31T09:03:36;16.60;99.90
3275;DHT22;1649;53.672;10.064;2023-07-31T09:06:04;16.50;99.90
3275;DHT22;1649;53.672;10.064;2023-07-31T09:08:31;16.50;99.90
3275;DHT22;1649;53.672;10.064;2023-07-31T09:11:00;16.60;99.90
3275;DHT22;1649;53.672;10.064;2023-07-31T09:13:28;16.70;99.90
3275;DHT22;1649;53.672;10.064;2023-07-31T09:15:54;16.70;99.90
3275;DHT22;1649;53.672;10.064;2023-07-31T09:18:20;16.70;99.90
3275;DHT22;1649;53.672;10.064;2023-07-31T09:21:00;16.80;99.90
3275;DHT22;1649;53.672;10.064;2023-07-31T09:23:49;16.70;99.90
3275;DHT22;1649;53.672;10.064;2023-07-31T09:26:34;16.70;99.90
3275;DHT22;1649;53.672;10.064;2023-07-31T09:29:01;16.60;99.90
3275;DHT22;1649;53.672;10.064;2023-07-31T09:31:42;16.60;99.90
3275;DHT22;1649;53.672;10.064;2023-07-31T09:34:08;16.70;99.90
3275;DHT22;1649;53.672;10.064;2023-07-31T09:36:40;16.60;99.90
3275;DHT22;1649;53.672;10.064;2023-07-31T09:39:09;16.40;99.90
3275;DHT22;1649;53.672;10.064;2023-07-31T09:41:39;16.60;99.90
3275;DHT22;1649;53.672;10.064;2023-07-31T09:44:05;16.70;99.90
3275;DHT22;1649;53.672;10.064;2023-07-31T09:46:31;16.70;99.90
3275;DHT22;1649;53.672;10.064;2023-07-31T09:49:13;16.70;99.90
3275;DHT22;1649;53.672;10.064;2023-07-31T09:51:41;16.70;99.90
3275;DHT22;1649;53.672;10.064;2023-07-31T09:54:15;16.60;99.90
3275;DHT22;1649;53.672;10.064;2023-07-31T09:56:48;16.60;99.90
3275;DHT22;1649;53.672;10.064;2023-07-31T09:59:16;16.70;99.90
3275;DHT22;1649;53.672;10.064;2023-07-31T10:01:43;16.70;99.90
3275;DHT22;1649;53.672;10.064;2023-07-31T10:04:10;16.80;99.90
3275;DHT22;1649;53.672;10.064;2023-07-31T10:06:36;16.80;99.90
3275;DHT22;1649;53.672;10.064;2023-07-31T10:09:06;16.80;99.90
3275;DHT22;1649;53.672;10.064;2023-07-31T10:11:41;16.90;99.90
3275;DHT22;1649;53.672;10.064;2023-07-31T10:14:09;16.90;99.90
3275;DHT22;1649;53.672;10.064;2023-07-31T10:16:38;16.90;99.90
3275;DHT22;1649;53.672;10.064;2023-07-31T10:19:04;16.80;99.90
3275;DHT22;1649;53.672;10.064;2023-07-31T10:21:31;16.80;99.90
3275;DHT22;1649;53.672;10.064;2023-07-31T10:24:01;16.90;99.90
3275;DHT22;1649;53.672;10.064;2023-07-31T10:26:27;16.90;99.90
3275;DHT22;1649;53.672;10.064;2023-07-31T10:28:53;16.90;99.90
3275;DHT22;1649;53.672;10.064;2023-07-31T10:31:19;17.00;99.90
3275;DHT22;1649;53.672;10.064;2023-07-31T10:33:45;16.90;99.90
3275;DHT22;1649;53.672;10.064;2023-07-31T10:36:14;17.00;99.90
3275;DHT22;1649;53.672;10.064;2023-07-31T10:38:42;16.90;99.90
3275;DHT22;1649;53.672;10.064;2023-07-31T10:41:11;16.80;99.90
3275;DHT22;1649;53.672;10.064;2023-07-31T10:43:37;16.90;99.90
3275;DHT22;1649;53.672;10.064;2023-07-31T10:46:07;16.90;99.90
3275;DHT22;1649;53.672;10.064;2023-07-31T10:48:34;16.90;99.90
3275;DHT22;1649;53.672;10.064;2023-07-31T10:51:00;17.00;99.90
3275;DHT22;1649;53.672;10.064;2023-07-31T10:53:30;17.00;99.90
3275;DHT22;1649;53.672;10.064;2023-07-31T10:56:03;17.00;99.90
3275;DHT22;1649;53.672;10.064;2023-07-31T10:58:29;17.00;99.90
3275;DHT22;1649;53.672;10.064;2023-07-31T11:00:58;17.00;99.90
3275;DHT22;1649;53.672;10.064;2023-07-31T11:03:42;16.90;99.90
3275;DHT22;1649;53.672;10.064;2023-07-31T11:06:08;16.90;99.90
3275;DHT22;1649;53.672;10.064;2023-07-31T11:08:35;16.80;99.90
3275;DHT22;1649;53.672;10.064;2023-07-31T11:13:27;16.80;99.90
3275;DHT22;1649;53.672;10.064;2023-07-31T11:15:52;16.80;99.90
3275;DHT22;1649;53.672;10.064;2023-07-31T11:18:18;16.80;99.90
3275;DHT22;1649;53.672;10.064;2023-07-31T11:20:44;16.80;99.90
3275;DHT22;1649;53.672;10.064;2023-07-31T11:23:10;16.80;99.90
3275;DHT22;1649;53.672;10.064;2023-07-31T11:25:37;16.90;99.90
3275;DHT22;1649;53.672;10.064;2023-07-31T11:28:09;16.90;99.90
3275;DHT22;1649;53.672;10.064;2023-07-31T11:30:35;16.90;99.90
3275;DHT22;1649;53.672;10.064;2023-07-31T11:33:05;16.90;99.90
3275;DHT22;1649;53.672;10.064;2023-07-31T11:38:28;16.80;99.90
3275;DHT22;1649;53.672;10.064;2023-07-31T11:40:56;16.80;99.90
3275;DHT22;1649;53.672;10.064;2023-07-31T11:43:22;16.80;99.90
3275;DHT22;1649;53.672;10.064;2023-07-31T11:45:49;16.70;99.90
3275;DHT22;1649;53.672;10.064;2023-07-31T11:48:28;16.70;99.90
3275;DHT22;1649;53.672;10.064;2023-07-31T11:50:58;16.70;99.90
3275;DHT22;1649;53.672;10.064;2023-07-31T11:56:17;16.70;99.90
3275;DHT22;1649;53.672;10.064;2023-07-31T11:58:45;16.70;99.90
3275;DHT22;1649;53.672;10.064;2023-07-31T12:01:11;16.80;99.90
3275;DHT22;1649;53.672;10.064;2023-07-31T12:03:38;16.70;99.90
3275;DHT22;1649;53.672;10.064;2023-07-31T12:06:03;16.60;99.90
3275;DHT22;1649;53.672;10.064;2023-07-31T12:08:29;16.60;99.90
3275;DHT22;1649;53.672;10.064;2023-07-31T12:11:05;16.60;99.90
3275;DHT22;1649;53.672;10.064;2023-07-31T12:13:32;16.80;99.90
3275;DHT22;1649;53.672;10.064;2023-07-31T12:16:00;16.90;99.90
3275;DHT22;1649;53.672;10.064;2023-07-31T12:18:30;17.10;99.90
3275;DHT22;1649;53.672;10.064;2023-07-31T12:21:01;17.20;99.90
3275;DHT22;1649;53.672;10.064;2023-07-31T12:23:29;17.30;99.90
3275;DHT22;1649;53.672;10.064;2023-07-31T12:26:08;17.30;99.90
3275;DHT22;1649;53.672;10.064;2023-07-31T12:28:44;17.50;99.90
3275;DHT22;1649;53.672;10.064;2023-07-31T12:31:17;17.40;99.90
3275;DHT22;1649;53.672;10.064;2023-07-31T12:33:44;17.10;99.90
3275;DHT22;1649;53.672;10.064;2023-07-31T12:36:14;17.00;99.90
3275;DHT22;1649;53.672;10.064;2023-07-31T12:38:41;17.00;99.90
3275;DHT22;1649;53.672;10.064;2023-07-31T12:41:07;17.10;99.90
3275;DHT22;1649;53.672;10.064;2023-07-31T12:43:36;17.20;99.90
3275;DHT22;1649;53.672;10.064;2023-07-31T12:46:02;17.10;99.90
3275;DHT22;1649;53.672;10.064;2023-07-31T12:48:28;17.00;99.90
3275;DHT22;1649;53.672;10.064;2023-07-31T12:50:54;17.00;99.90
3275;DHT22;1649;53.672;10.064;2023-07-31T12:53:19;16.70;99.90
3275;DHT22;1649;53.672;10.064;2023-07-31T12:55:45;16.50;99.90
3275;DHT22;1649;53.672;10.064;2023-07-31T12:58:10;16.50;99.90
3275;DHT22;1649;53.672;10.064;2023-07-31T13:00:36;16.60;99.90
3275;DHT22;1649;53.672;10.064;2023-07-31T13:03:02;16.40;99.90
3275;DHT22;1649;53.672;10.064;2023-07-31T13:05:28;16.40;99.90
3275;DHT22;1649;53.672;10.064;2023-07-31T13:07:54;16.60;99.90
3275;DHT22;1649;53.672;10.064;2023-07-31T13:10:20;16.70;99.90
3275;DHT22;1649;53.672;10.064;2023-07-31T13:12:46;16.60;99.90
3275;DHT22;1649;53.672;10.064;2023-07-31T13:15:12;16.70;99.90
3275;DHT22;1649;53.672;10.064;2023-07-31T13:17:37;16.80;99.90
3275;DHT22;1649;53.672;10.064;2023-07-31T13:20:03;16.80;99.90
3275;DHT22;1649;53.672;10.064;2023-07-31T13:22:29;16.90;99.90
3275;DHT22;1649;53.672;10.064;2023-07-31T13:24:55;16.90;99.90
3275;DHT22;1649;53.672;10.064;2023-07-31T13:27:20;16.80;99.90
3275;DHT22;1649;53.672;10.064;2023-07-31T13:29:48;16.80;99.90
3275;DHT22;1649;53.672;10.064;2023-07-31T13:32:15;16.70;99.90
3275;DHT22;1649;53.672;10.064;2023-07-31T13:34:40;16.80;99.90
3275;DHT22;1649;53.672;10.064;2023-07-31T13:37:06;16.70;99.90
3275;DHT22;1649;53.672;10.064;2023-07-31T13:39:32;16.80;99.90
3275;DHT22;1649;53.672;10.064;2023-07-31T13:41:58;16.70;99.90
3275;DHT22;1649;53.672;10.064;2023-07-31T13:44:24;16.80;99.90
3275;DHT22;1649;53.672;10.064;2023-07-31T13:46:49;16.80;99.90
3275;DHT22;1649;53.672;10.064;2023-07-31T13:49:15;16.80;99.90
3275;DHT22;1649;53.672;10.064;2023-07-31T13:51:40;16.70;99.90
3275;DHT22;1649;53.672;10.064;2023-07-31T13:54:06;16.60;99.90
3275;DHT22;1649;53.672;10.064;2023-07-31T13:56:34;16.50;99.90
3275;DHT22;1649;53.672;10.064;2023-07-31T13:59:00;16.50;99.90
3275;DHT22;1649;53.672;10.064;2023-07-31T14:01:26;16.40;99.90
3275;DHT22;1649;53.672;10.064;2023-07-31T14:03:52;16.30;99.90
3275;DHT22;1649;53.672;10.064;2023-07-31T14:06:18;16.30;99.90
3275;DHT22;1649;53.672;10.064;2023-07-31T14:08:43;16.20;99.90
3275;DHT22;1649;53.672;10.064;2023-07-31T14:11:09;16.10;99.90
3275;DHT22;1649;53.672;10.064;2023-07-31T14:13:34;16.10;99.90
3275;DHT22;1649;53.672;10.064;2023-07-31T14:16:00;16.10;99.90
3275;DHT22;1649;53.672;10.064;2023-07-31T14:18:25;16.10;99.90
3275;DHT22;1649;53.672;10.064;2023-07-31T14:20:51;16.20;99.90
3275;DHT22;1649;53.672;10.064;2023-07-31T14:23:17;16.40;99.90
3275;DHT22;1649;53.672;10.064;2023-07-31T14:25:42;16.50;99.90
3275;DHT22;1649;53.672;10.064;2023-07-31T14:28:08;16.50;99.90
3275;DHT22;1649;53.672;10.064;2023-07-31T14:30:33;16.50;99.90
3275;DHT22;1649;53.672;10.064;2023-07-31T14:32:59;16.50;99.90
3275;DHT22;1649;53.672;10.064;2023-07-31T14:35:26;16.50;99.90
3275;DHT22;1649;53.672;10.064;2023-07-31T14:37:51;16.40;99.90
3275;DHT22;1649;53.672;10.064;2023-07-31T14:40:17;16.40;99.90
3275;DHT22;1649;53.672;10.064;2023-07-31T14:42:42;16.20;99.90
3275;DHT22;1649;53.672;10.064;2023-07-31T14:45:08;16.20;99.90
3275;DHT22;1649;53.672;10.064;2023-07-31T14:47:35;16.30;99.90
3275;DHT22;1649;53.672;10.064;2023-07-31T14:50:01;16.30;99.90
3275;DHT22;1649;53.672;10.064;2023-07-31T14:52:26;16.30;99.90
3275;DHT22;1649;53.672;10.064;2023-07-31T14:54:52;16.40;99.90
3275;DHT22;1649;53.672;10.064;2023-07-31T14:57:17;16.50;99.90
3275;DHT22;1649;53.672;10.064;2023-07-31T14:59:43;16.40;99.90
3275;DHT22;1649;53.672;10.064;2023-07-31T15:02:09;16.50;99.90
3275;DHT22;1649;53.672;10.064;2023-07-31T15:04:35;16.40;99.90
3275;DHT22;1649;53.672;10.064;2023-07-31T15:07:01;16.30;99.90
3275;DHT22;1649;53.672;10.064;2023-07-31T15:09:26;16.40;99.90
3275;DHT22;1649;53.672;10.064;2023-07-31T15:11:52;16.40;99.90
3275;DHT22;1649;53.672;10.064;2023-07-31T15:14:18;16.40;99.90
3275;DHT22;1649;53.672;10.064;2023-07-31T15:16:43;16.50;99.90
3275;DHT22;1649;53.672;10.064;2023-07-31T15:19:09;16.50;99.90
3275;DHT22;1649;53.672;10.064;2023-07-31T15:21:36;16.40;99.90
3275;DHT22;1649;53.672;10.064;2023-07-31T15:24:02;16.40;99.90
3275;DHT22;1649;53.672;10.064;2023-07-31T15:26:27;16.30;99.90
3275;DHT22;1649;53.672;10.064;2023-07-31T15:29:04;16.30;99.90
3275;DHT22;1649;53.672;10.064;2023-07-31T15:31:34;16.20;99.90
3275;DHT22;1649;53.672;10.064;2023-07-31T15:33:59;16.20;99.90
3275;DHT22;1649;53.672;10.064;2023-07-31T15:36:25;16.20;99.90
3275;DHT22;1649;53.672;10.064;2023-07-31T15:38:51;16.10;99.90
3275;DHT22;1649;53.672;10.064;2023-07-31T15:41:17;16.10;99.90
3275;DHT22;1649;53.672;10.064;2023-07-31T15:43:43;16.10;99.90
3275;DHT22;1649;53.672;10.064;2023-07-31T15:46:08;16.00;99.90
3275;DHT22;1649;53.672;10.064;2023-07-31T15:48:34;16.00;99.90
3275;DHT22;1649;53.672;10.064;2023-07-31T15:51:00;16.00;99.90
3275;DHT22;1649;53.672;10.064;2023-07-31T15:53:26;16.10;99.90
3275;DHT22;1649;53.672;10.064;2023-07-31T15:55:52;16.10;99.90